sensor_id;sensor_type;location;lat;lon;timestamp;pressure;altitude;pressure_sealevel;temperature;humidity
21900;BME280;11114;50.658;12.704;2024-02-04T16:41:26;96051.44;;;3.82;100.00
21900;BME280;11114;50.658;12.704;2024-02-04T16:44:14;96046.09;;;3.93;100.00
21900;BME280;11114;50.658;12.704;2024-02-04T16:47:02;96038.94;;;4.05;100.00
21900;BME280;11114;50.658;12.704;2024-02-04T16:49:54;96041.47;;;4.14;100.00
21900;BME280;11114;50.658;12.704;2024-02-04T16:52:41;96046.66;;;4.24;100.00
21900;BME280;11114;50.658;12.704;2024-02-04T16:55:31;96030.31;;;4.31;100.00
21900;BME280;11114;50.658;12.704;2024-02-04T16:58:19;96033.16;;;4.38;100.00
21900;BME280;11114;50.658;12.704;2024-02-04T17:01:06;96035.34;;;4.42;100.00
21900;BME280;11114;50.658;12.704;2024-02-04T17:03:53;96038.63;;;4.44;100.00
21900;BME280;11114;50.658;12.704;2024-02-04T17:06:41;96040.50;;;4.52;100.00
21900;BME280;11114;50.658;12.704;2024-02-04T17:09:31;96026.56;;;4.53;100.00
21900;BME280;11114;50.658;12.704;2024-02-04T17:12:19;96024.47;;;4.56;100.00
21900;BME280;11114;50.658;12.704;2024-02-04T17:15:07;96024.59;;;4.55;100.00
21900;BME280;11114;50.658;12.704;2024-02-04T17:18:00;96021.56;;;4.59;100.00
21900;BME280;11114;50.658;12.704;2024-02-04T17:20:51;96011.84;;;4.61;100.00
21900;BME280;11114;50.658;12.704;2024-02-04T17:23:43;96002.28;;;4.62;100.00
21900;BME280;11114;50.658;12.704;2024-02-04T17:26:35;96016.34;;;4.68;100.00
21900;BME280;11114;50.658;12.704;2024-02-04T17:29:25;96020.44;;;4.71;100.00
21900;BME280;11114;50.658;12.704;2024-02-04T17:32:13;96000.59;;;4.70;100.00
21900;BME280;11114;50.658;12.704;2024-02-04T17:35:00;96000.22;;;4.65;100.00
21900;BME280;11114;50.658;12.704;2024-02-04T17:37:47;96002.81;;;4.65;100.00
21900;BME280;11114;50.658;12.704;2024-02-04T17:40:36;96022.09;;;4.63;100.00
21900;BME280;11114;50.658;12.704;2024-02-04T17:43:23;96002.81;;;4.65;100.00
21900;BME280;11114;50.658;12.704;2024-02-04T17:46:10;96003.34;;;4.68;100.00
21900;BME280;11114;50.658;12.704;2024-02-04T17:48:57;95994.72;;;4.68;100.00
21900;BME280;11114;50.658;12.704;2024-02-04T17:51:44;95990.34;;;4.68;100.00
21900;BME280;11114;50.658;12.704;2024-02-04T17:54:34;95988.41;;;4.70;100.00
21900;BME280;11114;50.658;12.704;2024-02-04T17:57:22;95997.72;;;4.73;100.00
21900;BME280;11114;50.658;12.704;2024-02-04T18:00:09;95987.88;;;4.67;100.00
21900;BME280;11114;50.658;12.704;2024-02-04T18:02:57;95993.91;;;4.68;100.00
21900;BME280;11114;50.658;12.704;2024-02-04T18:05:44;96001.56;;;4.69;100.00
21900;BME280;11114;50.658;12.704;2024-02-04T18:08:31;95998.94;;;4.69;100.00
21900;BME280;11114;50.658;12.704;2024-02-04T18:11:25;95997.19;;;4.69;100.00
21900;BME280;11114;50.658;12.704;2024-02-04T18:14:40;95999.63;;;4.71;100.00
21900;BME280;11114;50.658;12.704;2024-02-04T18:17:55;96002.50;;;4.68;100.00
21900;BME280;11114;50.658;12.704;2024-02-04T18:20:42;96007.72;;;4.68;100.00
21900;BME280;11114;50.658;12.704;2024-02-04T18:23:29;95995.28;;;4.62;100.00
21900;BME280;11114;50.658;12.704;2024-02-04T18:26:23;95977.47;;;4.67;100.00
21900;BME280;11114;50.658;12.704;2024-02-04T18:29:10;96004.00;;;4.70;100.00
21900;BME280;11114;50.658;12.704;2024-02-04T18:31:57;95982.22;;;4.71;100.00
21900;BME280;11114;50.658;12.704;2024-02-04T18:34:43;95984.38;;;4.76;100.00
21900;BME280;11114;50.658;12.704;2024-02-04T18:37:30;95989.91;;;4.73;100.00
21900;BME280;11114;50.658;12.704;2024-02-04T18:40:17;95987.31;;;4.73;100.00
21900;BME280;11114;50.658;12.704;2024-02-04T18:43:04;95993.47;;;4.72;100.00
21900;BME280;11114;50.658;12.704;2024-02-04T18:45:51;95993.47;;;4.72;100.00
21900;BME280;11114;50.658;12.704;2024-02-04T18:48:43;95997.56;;;4.74;100.00
21900;BME280;11114;50.658;12.704;2024-02-04T18:51:30;96007.50;;;4.79;100.00
21900;BME280;11114;50.658;12.704;2024-02-04T18:54:17;95995.47;;;4.78;100.00
21900;BME280;11114;50.658;12.704;2024-02-04T18:57:03;95991.91;;;4.79;100.00
21900;BME280;11114;50.658;12.704;2024-02-04T18:59:50;95992.72;;;4.79;100.00
21900;BME280;11114;50.658;12.704;2024-02-04T19:02:37;95995.97;;;4.81;100.00
21900;BME280;11114;50.658;12.704;2024-02-04T19:05:26;96003.09;;;4.79;100.00
21900;BME280;11114;50.658;12.704;2024-02-04T19:08:13;96008.19;;;4.81;100.00
21900;BME280;11114;50.658;12.704;2024-02-04T19:11:06;96011.91;;;4.78;100.00
21900;BME280;11114;50.658;12.704;2024-02-04T19:13:55;96001.19;;;4.81;100.00
21900;BME280;11114;50.658;12.704;2024-02-04T19:16:43;96012.72;;;4.79;100.00
21900;BME280;11114;50.658;12.704;2024-02-04T19:19:29;96019.72;;;4.78;100.00
21900;BME280;11114;50.658;12.704;2024-02-04T19:22:17;96017.22;;;4.77;100.00
21900;BME280;11114;50.658;12.704;2024-02-04T19:25:03;96017.53;;;4.74;100.00
21900;BME280;11114;50.658;12.704;2024-02-04T19:27:56;96023.09;;;4.79;100.00
21900;BME280;11114;50.658;12.704;2024-02-04T19:30:43;96012.19;;;4.75;100.00
21900;BME280;11114;50.658;12.704;2024-02-04T19:33:33;96013.81;;;4.76;100.00
21900;BME280;11114;50.658;12.704;2024-02-04T19:36:21;96017.91;;;4.79;100.00
21900;BME280;11114;50.658;12.704;2024-02-04T19:39:16;96018.72;;;4.79;100.00
21900;BME280;11114;50.658;12.704;2024-02-04T19:42:15;96025.03;;;4.77;100.00
21900;BME280;11114;50.658;12.704;2024-02-04T19:45:07;96011.06;;;4.78;100.00
21900;BME280;11114;50.658;12.704;2024-02-04T19:47:53;96015.47;;;4.77;100.00
21900;BME280;11114;50.658;12.704;2024-02-04T19:50:44;96013.81;;;4.76;100.00
21900;BME280;11114;50.658;12.704;2024-02-04T19:53:31;96010.38;;;4.76;100.00
21900;BME280;11114;50.658;12.704;2024-02-04T19:56:17;96016.56;;;4.75;100.00
21900;BME280;11114;50.658;12.704;2024-02-04T19:59:06;96021.75;;;4.75;100.00
21900;BME280;11114;50.658;12.704;2024-02-04T20:01:53;96019.03;;;4.76;100.00
21900;BME280;11114;50.658;12.704;2024-02-04T20:04:40;96021.63;;;4.76;100.00
21900;BME280;11114;50.658;12.704;2024-02-04T20:07:27;96010.25;;;4.77;100.00
21900;BME280;11114;50.658;12.704;2024-02-04T20:10:17;96007.50;;;4.79;100.00
21900;BME280;11114;50.658;12.704;2024-02-04T20:13:08;96009.94;;;4.80;100.00
21900;BME280;11114;50.658;12.704;2024-02-04T20:15:54;96003.78;;;4.81;100.00
21900;BME280;11114;50.658;12.704;2024-02-04T20:18:42;96001.19;;;4.81;100.00
21900;BME280;11114;50.658;12.704;2024-02-04T20:21:30;96005.25;;;4.84;100.00
21900;BME280;11114;50.658;12.704;2024-02-04T20:24:16;95980.91;;;4.85;100.00
21900;BME280;11114;50.658;12.704;2024-02-04T20:27:03;95998.97;;;4.86;100.00
21900;BME280;11114;50.658;12.704;2024-02-04T20:29:51;95993.25;;;4.83;100.00
21900;BME280;11114;50.658;12.704;2024-02-04T20:32:38;95987.75;;;4.86;100.00
21900;BME280;11114;50.658;12.704;2024-02-04T20:35:27;95980.63;;;4.88;100.00
21900;BME280;11114;50.658;12.704;2024-02-04T20:38:15;95989.38;;;4.87;100.00
21900;BME280;11114;50.658;12.704;2024-02-04T20:41:02;95990.22;;;4.87;100.00
21900;BME280;11114;50.658;12.704;2024-02-04T20:43:49;95979.50;;;4.90;100.00
21900;BME280;11114;50.658;12.704;2024-02-04T20:46:36;95983.06;;;4.89;100.00
21900;BME280;11114;50.658;12.704;2024-02-04T20:49:28;95979.50;;;4.90;100.00
21900;BME280;11114;50.658;12.704;2024-02-04T20:52:15;95984.84;;;4.89;100.00
21900;BME280;11114;50.658;12.704;2024-02-04T20:55:05;95979.38;;;4.92;100.00
21900;BME280;11114;50.658;12.704;2024-02-04T20:57:52;95985.53;;;4.91;100.00
21900;BME280;11114;50.658;12.704;2024-02-04T21:00:40;95983.88;;;4.90;100.00
21900;BME280;11114;50.658;12.704;2024-02-04T21:03:27;95985.53;;;4.91;100.00
21900;BME280;11114;50.658;12.704;2024-02-04T21:06:21;95978.97;;;4.87;100.00
21900;BME280;11114;50.658;12.704;2024-02-04T21:09:09;95991.81;;;4.88;100.00
21900;BME280;11114;50.658;12.704;2024-02-04T21:11:56;95996.22;;;4.88;100.00
21900;BME280;11114;50.658;12.704;2024-02-04T21:14:43;95980.91;;;4.85;100.00
21900;BME280;11114;50.658;12.704;2024-02-04T21:17:30;95977.22;;;4.87;100.00
21900;BME280;11114;50.658;12.704;2024-02-04T21:20:16;95985.66;;;4.89;100.00
21900;BME280;11114;50.658;12.704;2024-02-04T21:23:02;95977.06;;;4.89;100.00
21900;BME280;11114;50.658;12.704;2024-02-04T21:25:49;95980.44;;;4.89;100.00
21900;BME280;11114;50.658;12.704;2024-02-04T21:28:37;95983.72;;;4.91;100.00
21900;BME280;11114;50.658;12.704;2024-02-04T21:31:26;95977.56;;;4.92;100.00
21900;BME280;11114;50.658;12.704;2024-02-04T21:34:12;95982.75;;;4.92;100.00
21900;BME280;11114;50.658;12.704;2024-02-04T21:37:00;95981.13;;;4.91;100.00
21900;BME280;11114;50.658;12.704;2024-02-04T21:39:47;95985.53;;;4.91;100.00
21900;BME280;11114;50.658;12.704;2024-02-04T21:42:34;95980.31;;;4.91;100.00
21900;BME280;11114;50.658;12.704;2024-02-04T21:45:20;95967.59;;;4.88;100.00
21900;BME280;11114;50.658;12.704;2024-02-04T21:48:07;95961.44;;;4.89;100.00
21900;BME280;11114;50.658;12.704;2024-02-04T21:50:54;95966.94;;;4.86;100.00
21900;BME280;11114;50.658;12.704;2024-02-04T21:53:41;95960.09;;;4.85;100.00
21900;BME280;11114;50.658;12.704;2024-02-04T21:56:27;95973.09;;;4.85;100.00
21900;BME280;11114;50.658;12.704;2024-02-04T21:59:14;95951.31;;;4.86;100.00
21900;BME280;11114;50.658;12.704;2024-02-04T22:02:01;95958.63;;;4.82;100.00
21900;BME280;11114;50.658;12.704;2024-02-04T22:04:48;95950.81;;;4.82;100.00
21900;BME280;11114;50.658;12.704;2024-02-04T22:07:35;95949.84;;;4.83;100.00
21900;BME280;11114;50.658;12.704;2024-02-04T22:10:21;95944.66;;;4.83;100.00
21900;BME280;11114;50.658;12.704;2024-02-04T22:13:08;95929.72;;;4.85;100.00
21900;BME280;11114;50.658;12.704;2024-02-04T22:15:54;95937.38;;;4.87;100.00
21900;BME280;11114;50.658;12.704;2024-02-04T22:18:41;95942.56;;;4.87;100.00
21900;BME280;11114;50.658;12.704;2024-02-04T22:21:27;95936.41;;;4.88;100.00
21900;BME280;11114;50.658;12.704;2024-02-04T22:24:14;95951.72;;;4.91;100.00
21900;BME280;11114;50.658;12.704;2024-02-04T22:27:00;95968.28;;;4.90;100.00
21900;BME280;11114;50.658;12.704;2024-02-04T22:29:46;95945.91;;;4.97;100.00
21900;BME280;11114;50.658;12.704;2024-02-04T22:32:33;95930.97;;;4.99;100.00
21900;BME280;11114;50.658;12.704;2024-02-04T22:35:20;95936.16;;;4.99;100.00
21900;BME280;11114;50.658;12.704;2024-02-04T22:38:06;95941.88;;;5.02;100.00
21900;BME280;11114;50.658;12.704;2024-02-04T22:40:53;95949.03;;;5.00;100.00
21900;BME280;11114;50.658;12.704;2024-02-04T22:43:40;95939.44;;;5.01;100.00
21900;BME280;11114;50.658;12.704;2024-02-04T22:46:26;95923.53;;;5.04;100.00
21900;BME280;11114;50.658;12.704;2024-02-04T22:49:12;95927.75;;;5.05;100.00
21900;BME280;11114;50.658;12.704;2024-02-04T22:51:58;95924.47;;;5.03;100.00
21900;BME280;11114;50.658;12.704;2024-02-04T22:54:46;95926.00;;;5.05;100.00
21900;BME280;11114;50.658;12.704;2024-02-04T22:57:32;95923.22;;;5.07;100.00
21900;BME280;11114;50.658;12.704;2024-02-04T23:00:19;95921.44;;;5.07;100.00
21900;BME280;11114;50.658;12.704;2024-02-04T23:03:15;95920.47;;;5.08;100.00
21900;BME280;11114;50.658;12.704;2024-02-04T23:06:02;95912.81;;;5.07;100.00
21900;BME280;11114;50.658;12.704;2024-02-04T23:08:49;95916.53;;;5.04;100.00
21900;BME280;11114;50.658;12.704;2024-02-04T23:11:35;95945.97;;;5.05;100.00
21900;BME280;11114;50.658;12.704;2024-02-04T23:14:22;95937.72;;;5.09;100.00
21900;BME280;11114;50.658;12.704;2024-02-04T23:17:08;95918.81;;;5.07;100.00
21900;BME280;11114;50.658;12.704;2024-02-04T23:19:56;95904.06;;;5.08;100.00
21900;BME280;11114;50.658;12.704;2024-02-04T23:22:44;95932.28;;;5.03;100.00
21900;BME280;11114;50.658;12.704;2024-02-04T23:25:30;95914.75;;;5.05;100.00
21900;BME280;11114;50.658;12.704;2024-02-04T23:28:17;95905.19;;;5.05;100.00
21900;BME280;11114;50.658;12.704;2024-02-04T23:31:04;95900.47;;;5.09;100.00
21900;BME280;11114;50.658;12.704;2024-02-04T23:33:50;95917.41;;;5.13;100.00
21900;BME280;11114;50.658;12.704;2024-02-04T23:36:37;95914.97;;;5.11;100.00
21900;BME280;11114;50.658;12.704;2024-02-04T23:39:23;95948.94;;;5.10;100.00
21900;BME280;11114;50.658;12.704;2024-02-04T23:42:10;95938.38;;;5.11;100.00
21900;BME280;11114;50.658;12.704;2024-02-04T23:44:57;95934.31;;;5.09;100.00
21900;BME280;11114;50.658;12.704;2024-02-04T23:47:44;95943.59;;;5.11;100.00
21900;BME280;11114;50.658;12.704;2024-02-04T23:50:30;95918.38;;;5.12;100.00
21900;BME280;11114;50.658;12.704;2024-02-04T23:53:17;95921.47;;;5.15;100.00
21900;BME280;11114;50.658;12.704;2024-02-04T23:56:04;95906.03;;;5.14;100.00
21900;BME280;11114;50.658;12.704;2024-02-04T23:58:52;95914.00;;;5.12;100.00
